Flight Track Log - Related Links

Times and Time Zones

All times are in EDT time to prevent confusion due to time zone crossing. See the N319EE flight status page for this flight to view local times or setup timezone preferences in your user account.

Time Position Orientation Groundspeed Altitude Reporting Facility
EDT Latitude Longitude Course Direction KTS MPH feet Rate Location/Type
Wed 03:38:07 PM 41.1000 -73.7833 294° West 173 199 3,000  Level New York TRACON
Wed 03:39:01 PM 41.1000 -73.8500 270° West 182 209 4,600 1,950 Climbing New York TRACON
Wed 03:40:07 PM 41.1500 -73.8667 346° North 181 208 6,900 1,913 Climbing New York TRACON
Wed 03:41:41 PM 41.1897 -73.7889 56° Northeast 202 232 9,700 1,907 Climbing Boston Center
Wed 03:42:38 PM 41.2200 -73.7150 61° Northeast 202 232 11,700 1,678 Climbing Boston Center
Wed 03:43:39 PM 41.2497 -73.6522 58° Northeast 208 239 13,000 645 Climbing Boston Center
Wed 03:44:39 PM 41.2944 -73.5644 56° Northeast 240 276 13,000  Level Boston Center
Wed 03:45:40 PM 41.3575 -73.5131 31° Northeast 263 303 13,000  Level Boston Center
Wed 03:46:40 PM 41.4242 -73.5114 North 229 264 13,000  Level Boston Center
Wed 03:47:40 PM 41.4928 -73.5125 359° North 235 270 13,000  Level Boston Center
Wed 03:48:38 PM 41.5617 -73.5139 359° North 240 276 13,000  Level Boston Center
Wed 03:49:39 PM 41.6283 -73.5147 359° North 240 276 13,000  Level Boston Center
Wed 03:50:39 PM 41.6992 -73.5161 359° North 240 276 13,000  Level Boston Center
Wed 03:51:40 PM 41.7658 -73.5172 359° North 240 276 13,000 -110 Level Boston Center
Wed 03:52:28 PM 41.8158 -73.5208 357° North 245 282 12,800 -500 Descending Boston Center
Wed 03:52:40 PM 41.8367 -73.5183 North 240 276 12,500 -1,100 Descending Boston Center
Wed 03:53:28 PM 41.8931 -73.5222 357° North 261 300 11,700 -1,082 Descending Boston Center
Wed 03:53:41 PM 41.9097 -73.5225 359° North 255 293 11,400 -689 Descending Boston Center
Wed 03:54:29 PM 41.9700 -73.5264 357° North 281 323 11,000 -400 Descending Boston Center
Wed 03:54:41 PM 41.9867 -73.5239 North 263 303 11,000  Level Boston Center
Wed 03:55:23 PM 42.0389 -73.5275 357° North 268 308 11,000  Level Boston Center
Wed 03:55:38 PM 42.0597 -73.5250 North 263 303 11,000  Level Boston Center
Wed 03:56:24 PM 42.1097 -73.5314 355° North 255 293 11,000  Level Boston Center
Wed 03:56:39 PM 42.1200 -73.5372 337° Northwest 263 303 11,000  Level Boston Center
Wed 03:57:24 PM 42.1717 -73.5661 337° Northwest 236 272 11,000 -100 Level Boston Center
Wed 03:57:39 PM 42.1800 -73.5747 323° Northwest 241 277 10,900 -1,400 Descending Boston Center
Wed 03:58:24 PM 42.2339 -73.6039 338° Northwest 250 288 9,600 -1,600 Descending Boston Center
Wed 03:58:39 PM 42.2464 -73.6097 341° North 241 277 9,300 -1,737 Descending Boston Center
Wed 03:59:40 PM 42.3106 -73.6500 335° Northwest 246 283 7,400 -1,866 Descending Boston Center
Wed 04:00:38 PM 42.3706 -73.6850 337° Northwest 230 265 5,600 -1,770 Descending Boston Center
Wed 04:00:41 PM 42.3664 -73.6822 154° Southeast 240 276 5,600 -1,636 Level Boston Center
Wed 04:01:33 PM 42.4244 -73.7169 336° Northwest 223 257 4,100 -1,759 Descending Boston Center
Wed 04:01:39 PM 42.4328 -73.7172 359° North 229 264 3,900 -900 Descending Boston Center
Wed 04:02:33 PM 42.4825 -73.7519 333° Northwest 227 261 3,200 -700 Descending Boston Center
Wed 04:02:39 PM 42.4844 -73.7492 46° Northeast 229 264 3,200 -179 Level Boston Center
Wed 04:03:40 PM 42.5447 -73.7842 337° Northwest 217 250 3,000 -157 Descending Boston Center
Wed 04:04:34 PM 42.5881 -73.8022 343° North 203 234 2,900 -200 Descending Boston Center
Wed 04:04:40 PM 42.5925 -73.7967 43° Northeast 206 237 2,800 -716 Descending Boston Center
Wed 04:05:41 PM 42.6442 -73.8147 346° North 201 231 2,100 -828 Descending Boston Center
Wed 04:06:36 PM 42.6922 -73.8072 North 146 168 1,200 9,207 Descending Boston Center
Wed 04:06:39 PM 42.6961 -73.8300 283° West 201 231 11,000 -700 Climbing Boston Center
Wed 04:07:36 PM 42.7319 -73.8081 24° Northeast 125 144 500 -11,053 Descending Boston Center
Wed 04:09:00 PM 42.7333 -73.8000 North  Level FlightAware Approximate
Wed 04:16:00 PM 42.7491 -73.8020 North  Level Estimated
Wed 04:17:00 PM 42.7491 -73.8020 North  Level Estimated
Wed 04:18:00 PM 42.7491 -73.8020 North  Level Estimated

Login

Don't have an account? Register now (free) for customized features, flight alerts, and more!